Time;durP1;ratioP1;P1;durP2;ratioP2;P2;SDS_P1;SDS_P2;PMS_P1;PMS_P2;Temp;Humidity;BMP_temperature;BMP_pressure;BME280_temperature;BME280_humidity;BME280_pressure;Samples;Min_cycle;Max_cycle;Signal;HPM_P1;HPM_P2
2021/12/15 00:01:35;;;;;;;18.13;10.87;;;;;;;2.33;100.00;-23880.88;5039553;28;20183;-69
2021/12/15 00:04:01;;;;;;;17.27;10.70;;;;;;;2.80;100.00;-23894.31;5042326;28;20372;-69
2021/12/15 00:06:27;;;;;;;17.23;10.07;;;;;;;2.78;100.00;-23893.72;5041675;28;20186;-71
2021/12/15 00:08:55;;;;;;;19.50;12.33;;;;;;;2.03;100.00;-23872.59;5041461;28;20208;-70
2021/12/15 00:11:23;;;;;;;18.10;10.97;;;;;;;2.80;100.00;-23894.31;5041601;28;20183;-71
2021/12/15 00:13:50;;;;;;;18.33;10.93;;;;;;;2.81;100.00;-23894.44;5046712;28;21289;-71
2021/12/15 00:16:17;;;;;;;17.73;9.93;;;;;;;2.74;100.00;-23892.44;5042125;28;20829;-69
2021/12/15 00:18:44;;;;;;;18.23;11.30;;;;;;;2.77;100.00;-23893.31;5044561;28;20309;-69
2021/12/15 00:21:13;;;;;;;17.20;10.47;;;;;;;2.72;100.00;-23891.88;5047242;28;20190;-69
2021/12/15 00:23:39;;;;;;;16.80;10.87;;;;;;;2.86;100.00;-23896.00;5048491;28;20190;-69
2021/12/15 00:26:05;;;;;;;15.97;9.87;;;;;;;2.59;100.00;-23888.44;5045843;28;20186;-69
2021/12/15 00:28:32;;;;;;;17.50;11.20;;;;;;;2.66;100.00;-23890.44;5042543;28;20230;-69
2021/12/15 00:30:58;;;;;;;18.87;11.83;;;;;;;2.64;100.00;-23889.88;5042466;28;20182;-70
2021/12/15 00:33:23;;;;;;;18.53;11.93;;;;;;;2.67;100.00;-23890.72;5042287;28;20257;-70
2021/12/15 00:35:49;;;;;;;20.27;11.77;;;;;;;2.45;100.00;-23884.44;5043345;28;20266;-70
2021/12/15 00:38:15;;;;;;;17.47;11.03;;;;;;;2.53;100.00;-23886.75;5046846;28;20248;-70
2021/12/15 00:40:40;;;;;;;18.70;11.40;;;;;;;2.81;100.00;-23894.44;5050125;28;20174;-70
2021/12/15 00:43:06;;;;;;;19.00;10.90;;;;;;;2.51;100.00;-23886.16;5044514;28;20230;-70
2021/12/15 00:45:32;;;;;;;18.50;10.53;;;;;;;2.51;100.00;-23886.03;5039011;28;20995;-69
2021/12/15 00:47:57;;;;;;;18.43;11.80;;;;;;;2.42;100.00;-23883.59;5040900;28;20194;-70
2021/12/15 00:50:28;;;;;;;20.60;12.17;;;;;;;2.69;100.00;-23891.16;5038502;28;20214;-70
2021/12/15 00:52:54;;;;;;;19.67;11.80;;;;;;;2.80;100.00;-23894.31;5043290;28;20183;-73
2021/12/15 00:55:26;;;;;;;19.53;12.27;;;;;;;2.83;100.00;-23895.16;5044058;28;20181;-72
2021/12/15 00:57:58;;;;;;;19.70;11.53;;;;;;;2.80;100.00;-23894.16;5051680;28;20201;-74
2021/12/15 01:00:33;;;;;;;21.83;12.00;;;;;;;2.95;100.00;-23898.59;5046184;28;20174;-71
2021/12/15 01:02:59;;;;;;;21.70;11.80;;;;;;;2.74;100.00;-23892.59;5045370;28;20183;-74
2021/12/15 01:05:32;;;;;;;19.00;11.17;;;;;;;2.63;100.00;-23889.59;5044758;28;20181;-72
2021/12/15 01:08:00;;;;;;;18.27;10.80;;;;;;;2.62;100.00;-23889.16;5046887;28;20182;-72
2021/12/15 01:10:40;;;;;;;19.03;12.20;;;;;;;3.01;100.00;-23900.16;5046424;28;20198;-71
2021/12/15 01:21:07;;;;;;;20.03;11.47;;;;;;;2.83;100.00;-23895.00;5051768;28;20216;-70
2021/12/15 01:23:33;;;;;;;18.40;11.10;;;;;;;2.96;100.00;-23898.72;5048146;28;20184;-70
2021/12/15 01:26:16;;;;;;;18.07;10.57;;;;;;;2.66;100.00;-23890.31;5041702;28;20606;-70
2021/12/15 01:28:43;;;;;;;16.23;10.17;;;;;;;2.67;100.00;-23890.72;5045012;28;20220;-69
2021/12/15 01:31:11;;;;;;;16.97;10.27;;;;;;;2.71;100.00;-23891.59;5048889;28;20182;-69
2021/12/15 01:33:37;;;;;;;15.17;10.07;;;;;;;2.01;100.00;-23872.03;5048276;28;20709;-70
2021/12/15 01:36:05;;;;;;;18.97;10.50;;;;;;;2.57;100.00;-23887.72;5046522;28;20222;-71
2021/12/15 01:38:33;;;;;;;15.23;9.47;;;;;;;2.88;100.00;-23896.59;5046577;28;20190;-70
2021/12/15 01:40:59;;;;;;;14.60;9.60;;;;;;;2.81;100.00;-23894.44;5043968;28;20614;-69
2021/12/15 01:43:49;;;;;;;15.40;9.93;;;;;;;2.48;100.00;-23885.31;5043690;28;20669;-69
2021/12/15 01:49:09;;;;;;;16.23;9.17;;;;;;;2.80;100.00;-23894.16;5046911;28;20271;-70
2021/12/15 01:51:35;;;;;;;15.83;9.90;;;;;;;2.54;100.00;-23886.88;5051927;28;20186;-70
2021/12/15 01:54:00;;;;;;;15.10;8.97;;;;;;;3.08;100.00;-23902.16;5047253;28;20197;-70
2021/12/15 01:56:27;;;;;;;15.13;9.13;;;;;;;3.11;100.00;-23903.00;5050565;28;20179;-71
2021/12/15 01:58:52;;;;;;;15.47;9.93;;;;;;;3.04;100.00;-23901.16;5056586;28;20191;-70
2021/12/15 02:01:19;;;;;;;14.93;9.40;;;;;;;3.06;100.00;-23901.72;5054250;28;20232;-70
2021/12/15 02:03:44;;;;;;;14.57;9.10;;;;;;;3.11;100.00;-23903.00;5051857;28;20183;-70
2021/12/15 02:06:10;;;;;;;14.53;9.23;;;;;;;2.95;100.00;-23898.59;5049781;28;20190;-71
2021/12/15 02:08:36;;;;;;;15.93;9.17;;;;;;;2.96;100.00;-23898.88;5054197;28;20210;-71
2021/12/15 02:11:03;;;;;;;14.90;9.30;;;;;;;3.06;100.00;-23901.56;5049739;28;20182;-71
2021/12/15 02:13:28;;;;;;;13.77;8.57;;;;;;;2.84;100.00;-23895.44;5050205;28;20175;-71
2021/12/15 02:15:56;;;;;;;15.53;9.00;;;;;;;2.96;100.00;-23898.88;5054002;28;20205;-71
2021/12/15 02:18:27;;;;;;;14.63;9.40;;;;;;;2.00;100.00;-23871.59;5048315;28;20187;-71
2021/12/15 02:20:57;;;;;;;17.00;9.43;;;;;;;3.06;100.00;-23901.56;5048257;28;20174;-71
2021/12/15 02:23:31;;;;;;;13.97;9.20;;;;;;;2.64;100.00;-23889.88;5044802;28;20574;-70
2021/12/15 02:25:57;;;;;;;13.20;8.37;;;;;;;2.72;100.00;-23891.88;5046297;28;20178;-70
2021/12/15 02:28:23;;;;;;;15.30;9.33;;;;;;;2.93;100.00;-23897.88;5043088;28;20696;-70
2021/12/15 02:30:57;;;;;;;15.83;8.97;;;;;;;2.88;100.00;-23896.59;5042334;28;20183;-70
2021/12/15 02:33:53;;;;;;;14.87;9.23;;;;;;;2.77;100.00;-23893.44;5043298;28;20230;-70
2021/12/15 02:39:01;;;;;;;15.57;8.93;;;;;;;2.60;100.00;-23888.59;5043289;28;20385;-70
2021/12/15 02:41:29;;;;;;;13.30;8.70;;;;;;;2.97;100.00;-23899.00;5042984;28;20661;-70
2021/12/15 02:44:02;;;;;;;13.70;8.33;;;;;;;3.05;100.00;-23901.28;5045618;28;20985;-70
2021/12/15 02:46:31;;;;;;;12.97;8.37;;;;;;;2.99;100.00;-23899.72;5046494;28;20187;-70
2021/12/15 02:48:57;;;;;;;14.70;8.63;;;;;;;3.28;100.00;-23907.84;5045570;28;20210;-70
2021/12/15 02:51:24;;;;;;;12.93;8.77;;;;;;;2.99;100.00;-23899.72;5046319;28;20186;-70
2021/12/15 02:53:50;;;;;;;14.80;9.03;;;;;;;3.09;100.00;-23902.56;5044613;28;20657;-70
2021/12/15 02:56:16;;;;;;;12.87;8.47;;;;;;;2.87;100.00;-23896.16;5044203;28;20214;-70
2021/12/15 02:58:54;;;;;;;15.63;9.00;;;;;;;3.19;100.00;-23905.13;5045735;28;20270;-70
2021/12/15 03:01:34;;;;;;;12.90;8.57;;;;;;;2.76;100.00;-23893.00;5045905;28;20269;-70
2021/12/15 03:04:16;;;;;;;14.40;9.27;;;;;;;2.87;100.00;-23896.16;5053735;28;20174;-71
2021/12/15 03:07:02;;;;;;;13.37;8.40;;;;;;;2.90;100.00;-23897.00;5043119;28;20175;-71
2021/12/15 03:15:19;;;;;;;12.70;8.40;;;;;;;3.15;100.00;-23904.13;5049637;28;20586;-70
2021/12/15 03:18:01;;;;;;;13.47;8.50;;;;;;;3.03;100.00;-23900.72;5052366;28;20241;-70
2021/12/15 03:20:30;;;;;;;11.33;7.90;;;;;;;3.28;100.00;-23907.84;5045770;28;20205;-70
2021/12/15 03:22:57;;;;;;;10.63;7.40;;;;;;;3.00;100.00;-23899.88;5050684;28;20206;-70
2021/12/15 03:25:25;;;;;;;12.23;7.57;;;;;;;3.22;100.00;-23906.00;5053571;28;20213;-70
2021/12/15 03:36:10;;;;;;;12.37;8.13;;;;;;;2.34;100.00;-23881.16;5045219;28;20189;-69
2021/12/15 03:38:37;;;;;;;11.67;7.43;;;;;;;3.01;100.00;-23900.16;5045251;28;20182;-70
2021/12/15 03:41:06;;;;;;;10.10;6.93;;;;;;;3.45;100.00;-23912.56;5043856;28;20277;-70
2021/12/15 03:43:33;;;;;;;11.30;7.10;;;;;;;3.38;100.00;-23910.56;5047161;28;20279;-70
2021/12/15 03:46:03;;;;;;;12.17;7.70;;;;;;;3.30;100.00;-23908.41;5047468;28;20570;-70
2021/12/15 03:48:32;;;;;;;12.40;8.07;;;;;;;3.23;100.00;-23906.44;5053072;28;20202;-70
2021/12/15 03:51:00;;;;;;;12.03;7.90;;;;;;;3.26;100.00;-23907.28;5047416;28;20179;-70
2021/12/15 03:53:27;;;;;;;12.67;7.70;;;;;;;2.85;100.00;-23895.59;5046237;28;20209;-70
2021/12/15 03:55:54;;;;;;;11.90;7.83;;;;;;;2.76;100.00;-23893.16;5049450;28;20182;-70
2021/12/15 03:58:24;;;;;;;13.73;8.17;;;;;;;2.84;100.00;-23895.28;5047232;28;20568;-70
2021/12/15 04:01:00;;;;;;;12.07;7.53;;;;;;;2.92;100.00;-23897.56;5052784;28;20198;-70
2021/12/15 04:03:30;;;;;;;12.53;8.07;;;;;;;2.89;100.00;-23896.88;5050611;28;20213;-71
2021/12/15 04:05:58;;;;;;;13.60;8.33;;;;;;;2.86;100.00;-23896.00;5053161;28;20187;-71
2021/12/15 04:08:28;;;;;;;13.07;7.93;;;;;;;2.91;100.00;-23897.44;5051341;28;20186;-71
2021/12/15 04:10:55;;;;;;;13.30;8.20;;;;;;;3.24;100.00;-23906.72;5053294;28;20181;-71
2021/12/15 04:13:20;;;;;;;12.93;8.60;;;;;;;3.28;100.00;-23907.84;5054699;28;20186;-71
2021/12/15 04:15:54;;;;;;;13.57;8.60;;;;;;;2.97;100.00;-23899.00;5050773;28;20186;-71
2021/12/15 04:18:20;;;;;;;12.47;8.30;;;;;;;3.25;100.00;-23906.84;5052015;28;20178;-71
2021/12/15 04:20:45;;;;;;;13.67;8.30;;;;;;;2.96;100.00;-23898.72;5053923;28;20274;-70
2021/12/15 04:23:18;;;;;;;13.93;8.60;;;;;;;3.37;100.00;-23910.28;5062718;28;20206;-70
2021/12/15 04:25:46;;;;;;;13.87;8.10;;;;;;;3.31;100.00;-23908.72;5059347;28;20171;-71
2021/12/15 04:28:15;;;;;;;14.27;9.07;;;;;;;2.84;100.00;-23895.28;5049992;28;20220;-71
2021/12/15 04:30:51;;;;;;;13.97;8.93;;;;;;;3.26;100.00;-23907.28;5048729;28;20244;-71
2021/12/15 04:33:37;;;;;;;12.97;8.50;;;;;;;3.21;100.00;-23905.84;5047266;28;20179;-69
2021/12/15 04:36:06;;;;;;;14.13;8.80;;;;;;;3.32;100.00;-23909.00;5048096;28;20193;-69
2021/12/15 04:38:32;;;;;;;13.90;8.77;;;;;;;2.90;100.00;-23897.16;5047530;28;20248;-70
2021/12/15 04:41:00;;;;;;;14.93;8.80;;;;;;;2.90;100.00;-23897.00;5044488;28;20194;-70
2021/12/15 04:43:30;;;;;;;15.30;9.47;;;;;;;3.10;100.00;-23902.84;5044573;28;20222;-70
2021/12/15 04:45:57;;;;;;;14.67;9.00;;;;;;;3.13;100.00;-23903.44;5045590;28;20660;-69
2021/12/15 04:48:22;;;;;;;15.33;9.30;;;;;;;3.08;100.00;-23902.28;5050273;28;20209;-70
2021/12/15 04:50:48;;;;;;;14.63;9.43;;;;;;;3.19;100.00;-23905.13;5048174;28;20282;-69
2021/12/15 04:53:14;;;;;;;16.07;9.53;;;;;;;2.93;100.00;-23897.88;5046477;28;20269;-70
2021/12/15 04:55:40;;;;;;;15.40;9.73;;;;;;;2.86;100.00;-23895.88;5050020;28;20182;-70
2021/12/15 04:58:08;;;;;;;13.43;9.30;;;;;;;3.20;100.00;-23905.56;5048294;28;20244;-70
2021/12/15 05:00:39;;;;;;;14.20;9.20;;;;;;;3.06;100.00;-23901.72;5047469;28;20356;-70
2021/12/15 05:03:06;;;;;;;14.17;9.17;;;;;;;3.07;100.00;-23902.00;5041347;28;20306;-70
2021/12/15 05:05:33;;;;;;;13.57;8.73;;;;;;;3.29;100.00;-23908.00;5044935;28;20171;-69
2021/12/15 05:07:59;;;;;;;16.57;9.30;;;;;;;3.09;100.00;-23902.44;5045601;28;20187;-70
2021/12/15 05:10:25;;;;;;;15.13;9.23;;;;;;;3.17;100.00;-23904.56;5044409;28;20218;-69
2021/12/15 05:12:51;;;;;;;13.27;8.87;;;;;;;3.37;100.00;-23910.28;5040911;28;20609;-69
2021/12/15 05:15:17;;;;;;;15.40;8.83;;;;;;;3.27;100.00;-23907.56;5042291;28;20190;-70
2021/12/15 05:17:46;;;;;;;15.00;9.00;;;;;;;2.83;100.00;-23895.16;5056898;28;20566;-69
2021/12/15 05:20:13;;;;;;;15.73;9.60;;;;;;;3.33;100.00;-23909.28;5042827;28;20228;-69
2021/12/15 05:22:39;;;;;;;16.70;9.93;;;;;;;2.77;100.00;-23893.31;5046564;28;20190;-70
2021/12/15 05:25:07;;;;;;;17.47;10.40;;;;;;;3.26;100.00;-23907.28;5050491;28;20182;-69
2021/12/15 05:27:32;;;;;;;18.03;10.23;;;;;;;3.24;100.00;-23906.72;5051377;28;20672;-69
2021/12/15 05:29:58;;;;;;;17.43;10.03;;;;;;;2.93;100.00;-23898.00;5041059;28;20221;-66
2021/12/15 05:32:24;;;;;;;17.40;10.30;;;;;;;2.82;100.00;-23894.72;5047085;28;20267;-68
2021/12/15 05:34:53;;;;;;;17.57;11.03;;;;;;;3.20;100.00;-23905.41;5049842;28;20186;-66
2021/12/15 05:37:22;;;;;;;18.57;10.40;;;;;;;2.79;100.00;-23893.88;5049829;28;20248;-66
2021/12/15 05:39:48;;;;;;;18.60;10.30;;;;;;;3.15;100.00;-23904.13;5055178;28;20316;-67
2021/12/15 05:42:14;;;;;;;17.53;10.17;;;;;;;3.24;100.00;-23906.56;5055623;28;20226;-68
2021/12/15 05:44:40;;;;;;;18.50;10.27;;;;;;;3.28;100.00;-23907.72;5054412;28;20189;-67
2021/12/15 05:47:07;;;;;;;18.23;10.90;;;;;;;2.90;100.00;-23897.00;5055583;28;20170;-67
2021/12/15 05:49:33;;;;;;;19.50;11.43;;;;;;;2.82;100.00;-23894.88;5054430;28;20233;-67
2021/12/15 05:51:59;;;;;;;17.97;11.10;;;;;;;3.27;100.00;-23907.56;5050957;28;20236;-67
2021/12/15 05:54:25;;;;;;;21.80;12.33;;;;;;;3.23;100.00;-23906.28;5051102;28;20193;-69
2021/12/15 05:56:51;;;;;;;19.50;11.60;;;;;;;3.29;100.00;-23908.13;5053362;28;20281;-69
2021/12/15 05:59:18;;;;;;;21.63;12.63;;;;;;;3.33;100.00;-23909.28;5052951;28;20385;-69
2021/12/15 06:01:46;;;;;;;19.27;11.70;;;;;;;3.37;100.00;-23910.28;5046256;28;20175;-70
2021/12/15 06:04:13;;;;;;;20.73;12.97;;;;;;;3.39;100.00;-23910.84;5047162;28;20232;-70
2021/12/15 06:06:39;;;;;;;21.53;12.30;;;;;;;3.10;100.00;-23902.72;5046356;28;20179;-70
2021/12/15 06:09:07;;;;;;;22.10;12.93;;;;;;;3.37;100.00;-23910.41;5051679;28;20251;-70
2021/12/15 06:11:33;;;;;;;23.40;12.87;;;;;;;3.43;100.00;-23912.13;5065604;28;20186;-69
2021/12/15 06:13:59;;;;;;;20.93;12.30;;;;;;;3.06;100.00;-23901.72;5050286;28;20190;-69
2021/12/15 06:16:25;;;;;;;20.33;11.93;;;;;;;3.47;100.00;-23913.13;5048777;28;20526;-68
2021/12/15 06:18:52;;;;;;;20.83;12.67;;;;;;;3.37;100.00;-23910.28;5047812;28;20179;-68
2021/12/15 06:21:19;;;;;;;20.33;12.60;;;;;;;3.68;100.00;-23918.97;5051199;28;20287;-69
2021/12/15 06:23:47;;;;;;;22.20;12.50;;;;;;;3.72;100.00;-23920.25;5053364;28;20658;-69
2021/12/15 06:26:13;;;;;;;22.90;13.03;;;;;;;3.35;100.00;-23909.69;5053188;28;20178;-70
2021/12/15 06:28:39;;;;;;;20.30;12.07;;;;;;;3.72;100.00;-23920.09;5053269;28;20259;-69
2021/12/15 06:31:07;;;;;;;21.63;12.60;;;;;;;3.40;100.00;-23911.13;5048903;28;20174;-69
2021/12/15 06:33:34;;;;;;;21.87;12.87;;;;;;;3.83;100.00;-23923.38;5051537;28;20257;-68
2021/12/15 06:36:01;;;;;;;21.20;13.00;;;;;;;3.42;100.00;-23911.84;5052746;28;20178;-69
2021/12/15 06:38:30;;;;;;;22.13;13.17;;;;;;;3.81;100.00;-23922.81;5052411;28;20182;-69
2021/12/15 06:40:58;;;;;;;22.90;13.40;;;;;;;3.85;100.00;-23923.81;5049948;28;20240;-68
2021/12/15 06:43:24;;;;;;;25.13;14.27;;;;;;;3.61;100.00;-23917.13;5053355;28;20310;-69
2021/12/15 06:46:02;;;;;;;22.17;13.10;;;;;;;3.59;100.00;-23916.41;5050931;28;20182;-69
2021/12/15 06:59:28;;;;;;;23.80;14.03;;;;;;;3.64;100.00;-23917.97;5052646;28;20204;-70
2021/12/15 07:01:59;;;;;;;22.60;13.67;;;;;;;4.08;100.00;-23930.38;5053456;28;20187;-71
2021/12/15 07:04:24;;;;;;;23.10;13.83;;;;;;;3.58;100.00;-23916.25;5051759;28;20564;-69
2021/12/15 07:06:51;;;;;;;26.90;14.13;;;;;;;3.81;100.00;-23922.81;5053025;28;20183;-70
2021/12/15 07:09:18;;;;;;;23.30;13.13;;;;;;;4.05;100.00;-23929.38;5053484;28;20207;-69
2021/12/15 07:11:44;;;;;;;22.23;13.10;;;;;;;3.93;100.00;-23926.22;5052739;28;20199;-70
2021/12/15 07:14:09;;;;;;;22.67;13.03;;;;;;;3.99;100.00;-23927.81;5052037;28;20632;-70
2021/12/15 07:16:40;;;;;;;24.67;13.97;;;;;;;4.39;100.00;-23939.19;5049629;28;20209;-69
2021/12/15 07:19:17;;;;;;;24.60;13.50;;;;;;;4.14;100.00;-23932.06;5052736;28;20260;-71
2021/12/15 07:21:54;;;;;;;23.90;14.13;;;;;;;3.84;100.00;-23923.53;5053809;28;20170;-70
2021/12/15 07:24:21;;;;;;;24.33;13.97;;;;;;;3.85;100.00;-23923.81;5052058;28;20189;-71
2021/12/15 07:26:47;;;;;;;26.20;14.63;;;;;;;4.13;100.00;-23931.66;5052869;28;20210;-70
2021/12/15 07:29:12;;;;;;;25.83;14.17;;;;;;;4.09;100.00;-23930.50;5053480;28;20238;-71
2021/12/15 07:31:38;;;;;;;28.90;14.47;;;;;;;3.71;100.00;-23919.81;5053691;28;20190;-69
2021/12/15 07:34:04;;;;;;;26.93;14.90;;;;;;;4.22;100.00;-23934.34;5053830;28;20175;-70
2021/12/15 07:36:29;;;;;;;22.67;13.83;;;;;;;4.15;100.00;-23932.34;5053278;28;20183;-69
2021/12/15 07:38:57;;;;;;;23.00;13.47;;;;;;;4.28;100.00;-23935.91;5053365;28;20186;-69
2021/12/15 07:41:36;;;;;;;23.83;12.57;;;;;;;4.19;100.00;-23933.50;5053382;28;20175;-69
2021/12/15 07:44:03;;;;;;;29.53;13.43;;;;;;;3.94;100.00;-23926.38;5053498;28;20218;-69
2021/12/15 07:46:29;;;;;;;25.47;13.40;;;;;;;4.26;100.00;-23935.50;5053585;28;20170;-70
2021/12/15 07:48:54;;;;;;;22.43;12.83;;;;;;;3.89;100.00;-23925.09;5052640;28;20754;-70
2021/12/15 07:51:20;;;;;;;27.40;13.13;;;;;;;4.25;100.00;-23935.22;5049799;28;20277;-70
2021/12/15 07:53:45;;;;;;;26.63;12.37;;;;;;;4.22;100.00;-23934.22;5051692;28;20177;-70
2021/12/15 07:56:12;;;;;;;18.60;11.57;;;;;;;4.70;100.00;-23947.88;5050688;28;20264;-70
2021/12/15 07:58:38;;;;;;;20.87;11.80;;;;;;;4.39;100.00;-23939.06;5049704;28;20270;-70
2021/12/15 08:01:05;;;;;;;23.63;13.40;;;;;;;4.77;100.00;-23949.88;5048092;28;20178;-69
2021/12/15 08:03:33;;;;;;;22.30;12.60;;;;;;;4.48;100.00;-23941.47;5050261;28;20178;-69
2021/12/15 08:05:59;;;;;;;20.83;11.97;;;;;;;4.61;100.00;-23945.16;5051046;28;20324;-70
2021/12/15 08:08:25;;;;;;;22.77;12.50;;;;;;;4.34;100.00;-23937.78;5052191;28;20185;-71
2021/12/15 08:10:56;;;;;;;21.20;11.13;;;;;;;5.16;100.00;-23960.69;5047763;28;20192;-71
2021/12/15 08:13:30;;;;;;;20.00;10.97;;;;;;;4.51;100.00;-23942.47;5051662;28;20190;-69
2021/12/15 08:15:56;;;;;;;21.83;11.57;;;;;;;4.97;100.00;-23955.41;5052301;28;20187;-70
2021/12/15 08:18:22;;;;;;;20.40;10.40;;;;;;;4.55;100.00;-23943.59;5050739;28;20289;-70
2021/12/15 08:20:50;;;;;;;18.97;10.43;;;;;;;4.49;100.00;-23941.91;5047667;28;20187;-70
2021/12/15 08:23:16;;;;;;;17.13;10.57;;;;;;;4.53;100.00;-23942.91;5053018;28;20645;-70
2021/12/15 08:25:42;;;;;;;19.70;10.63;;;;;;;4.87;100.00;-23952.72;5051824;28;20178;-71
2021/12/15 08:28:10;;;;;;;19.20;10.97;;;;;;;4.56;100.00;-23943.88;5050102;28;20174;-70
2021/12/15 08:30:39;;;;;;;20.77;10.80;;;;;;;4.52;100.00;-23942.75;5049423;28;20198;-70
2021/12/15 08:33:11;;;;;;;17.10;10.63;;;;;;;4.49;100.00;-23941.91;5047646;28;20191;-70
2021/12/15 08:35:43;;;;;;;18.20;10.50;;;;;;;4.97;100.00;-23955.41;5046638;28;20266;-69
2021/12/15 08:38:09;;;;;;;16.87;10.20;;;;;;;5.15;100.00;-23960.41;5050371;28;20197;-70
2021/12/15 08:40:36;;;;;;;20.77;11.23;;;;;;;5.42;100.00;-23968.06;5049756;28;20187;-71
2021/12/15 08:43:03;;;;;;;15.70;10.37;;;;;;;5.63;100.00;-23974.03;5052996;28;20253;-71
2021/12/15 08:45:29;;;;;;;17.43;10.37;;;;;;;5.86;100.00;-23980.44;5043632;28;20179;-71
2021/12/15 08:47:57;;;;;;;16.57;10.83;;;;;;;5.69;100.00;-23975.59;5047354;28;20644;-70
2021/12/15 08:50:26;;;;;;;17.60;10.67;;;;;;;5.88;100.00;-23980.88;5050263;28;20205;-70
2021/12/15 08:52:53;;;;;;;17.10;10.40;;;;;;;6.19;100.00;-23989.81;5052134;28;20186;-70
2021/12/15 08:55:19;;;;;;;17.57;10.87;;;;;;;6.21;100.00;-23990.25;5050260;28;20194;-69
2021/12/15 08:57:49;;;;;;;17.10;11.27;;;;;;;6.09;100.00;-23986.84;5051884;28;20183;-71
2021/12/15 09:00:17;;;;;;;16.87;10.70;;;;;;;6.11;100.00;-23987.53;5052195;28;20209;-70
2021/12/15 09:02:43;;;;;;;21.00;11.33;;;;;;;5.79;100.00;-23978.44;5048200;28;20178;-71
2021/12/15 09:05:09;;;;;;;16.27;9.83;;;;;;;6.27;100.00;-23991.94;5048152;28;20528;-70
2021/12/15 09:07:35;;;;;;;16.77;9.67;;;;;;;6.09;100.00;-23986.97;5045760;28;20685;-70
2021/12/15 09:10:01;;;;;;;17.57;10.70;;;;;;;5.32;100.00;-23965.38;5049572;28;20194;-70
2021/12/15 09:12:27;;;;;;;16.03;10.00;;;;;;;5.89;100.00;-23981.28;5048720;28;20529;-70
2021/12/15 09:14:55;;;;;;;17.93;10.50;;;;;;;6.13;100.00;-23988.13;5050407;28;20274;-73
2021/12/15 09:17:20;;;;;;;16.77;10.67;;;;;;;5.80;100.00;-23978.72;5052229;28;20217;-72
2021/12/15 09:19:49;;;;;;;20.00;10.57;;;;;;;6.13;100.00;-23988.13;5051195;28;20206;-71
2021/12/15 09:22:14;;;;;;;15.70;10.13;;;;;;;6.19;100.00;-23989.81;5050092;28;20182;-70
2021/12/15 09:24:40;;;;;;;16.70;10.70;;;;;;;5.82;100.00;-23979.31;5052069;28;20670;-70
2021/12/15 09:27:06;;;;;;;16.57;10.17;;;;;;;6.20;100.00;-23990.09;5050303;28;20724;-70
2021/12/15 09:29:32;;;;;;;17.93;10.83;;;;;;;5.08;100.00;-23958.53;5051845;28;20332;-70
2021/12/15 09:31:58;;;;;;;19.30;11.40;;;;;;;6.25;100.00;-23991.38;5052196;28;20175;-70
2021/12/15 09:34:24;;;;;;;24.07;12.30;;;;;;;6.20;100.00;-23990.09;5049848;28;20246;-69
2021/12/15 09:36:52;;;;;;;20.23;11.47;;;;;;;6.14;100.00;-23988.25;5045841;28;20179;-70
2021/12/15 09:39:21;;;;;;;17.47;9.97;;;;;;;6.32;100.00;-23993.38;5052951;28;20190;-70
2021/12/15 09:41:48;;;;;;;16.33;10.10;;;;;;;5.85;100.00;-23980.16;5051119;28;20551;-70
2021/12/15 09:44:17;;;;;;;13.90;9.60;;;;;;;5.79;100.00;-23978.44;5048169;28;20195;-70
2021/12/15 10:03:12;;;;;;;15.50;9.83;;;;;;;5.87;100.00;-23980.59;5045758;28;20672;-71
2021/12/15 10:19:33;;;;;;;13.33;9.50;;;;;;;6.42;100.00;-23996.22;5041089;28;20189;-70
2021/12/15 10:22:02;;;;;;;14.83;10.20;;;;;;;6.11;100.00;-23987.53;5052920;28;20182;-70
2021/12/15 10:24:37;;;;;;;17.00;9.73;;;;;;;5.94;100.00;-23982.56;5055249;28;20174;-70
2021/12/15 10:27:06;;;;;;;14.30;9.57;;;;;;;6.31;100.00;-23992.94;5051736;28;20237;-71
2021/12/15 10:29:32;;;;;;;13.30;8.83;;;;;;;6.11;100.00;-23987.41;5053009;28;20300;-71
2021/12/15 10:32:04;;;;;;;14.87;9.67;;;;;;;6.00;100.00;-23984.28;5054773;28;20175;-71
2021/12/15 10:34:30;;;;;;;13.40;8.70;;;;;;;5.99;100.00;-23984.00;5052794;28;20261;-71
2021/12/15 10:36:57;;;;;;;14.97;9.23;;;;;;;6.48;100.00;-23997.91;5051320;28;20263;-71
2021/12/15 10:39:23;;;;;;;14.63;9.67;;;;;;;6.37;100.00;-23994.78;5055619;28;20210;-71
2021/12/15 10:41:53;;;;;;;13.90;9.50;;;;;;;6.46;100.00;-23997.19;5054751;28;20182;-71
2021/12/15 10:44:24;;;;;;;16.97;10.33;;;;;;;5.92;100.00;-23982.16;5055960;28;20711;-70
2021/12/15 10:46:59;;;;;;;14.67;9.80;;;;;;;6.33;100.00;-23993.50;5054555;28;20193;-72
2021/12/15 10:49:32;;;;;;;14.53;9.60;;;;;;;6.29;100.00;-23992.50;5054782;28;20232;-70
2021/12/15 10:52:01;;;;;;;13.73;9.77;;;;;;;6.14;100.00;-23988.25;5057089;28;20648;-70
2021/12/15 10:54:49;;;;;;;15.33;9.93;;;;;;;6.27;100.00;-23991.94;5059929;28;20265;-70
2021/12/15 10:57:27;;;;;;;13.90;9.37;;;;;;;6.30;100.00;-23992.66;5062388;28;20178;-70
2021/12/15 10:59:59;;;;;;;15.87;11.03;;;;;;;6.29;100.00;-23992.38;5052497;28;20186;-71
2021/12/15 11:02:32;;;;;;;16.30;10.53;;;;;;;6.26;100.00;-23991.53;5052069;28;20190;-70
2021/12/15 11:05:02;;;;;;;17.10;10.20;;;;;;;6.22;100.00;-23990.66;5045829;28;20206;-70
2021/12/15 11:07:29;;;;;;;18.30;10.47;;;;;;;6.38;100.00;-23995.06;5054358;28;20299;-72
2021/12/15 11:09:57;;;;;;;14.20;9.37;;;;;;;5.98;100.00;-23983.72;5054539;28;20212;-70
2021/12/15 11:12:28;;;;;;;15.97;9.50;;;;;;;6.28;100.00;-23992.09;5034257;28;20175;-72
2021/12/15 11:15:04;;;;;;;14.63;9.57;;;;;;;5.88;100.00;-23980.88;5034238;28;20241;-70
2021/12/15 11:17:47;;;;;;;18.87;10.23;;;;;;;5.88;100.00;-23980.88;5034171;28;20183;-71
2021/12/15 11:20:32;;;;;;;17.03;9.87;;;;;;;5.90;100.00;-23981.44;5034001;28;20186;-71
2021/12/15 11:23:00;;;;;;;17.70;10.37;;;;;;;4.67;100.00;-23947.03;5033622;28;20271;-70
2021/12/15 11:25:51;;;;;;;16.30;9.87;;;;;;;5.77;100.00;-23977.88;5033621;28;20175;-71
2021/12/15 11:28:22;;;;;;;15.70;9.63;;;;;;;6.11;100.00;-23987.41;5032725;28;20216;-71
2021/12/15 11:31:00;;;;;;;16.50;9.83;;;;;;;5.68;100.00;-23975.31;5032803;28;20211;-71
2021/12/15 11:33:33;;;;;;;16.73;10.07;;;;;;;5.90;100.00;-23981.56;5033602;28;20598;-71
2021/12/15 11:36:01;;;;;;;16.90;10.60;;;;;;;5.79;100.00;-23978.59;5033585;28;20183;-71
2021/12/15 11:38:51;;;;;;;18.97;11.10;;;;;;;5.87;100.00;-23980.59;5033444;28;20191;-71
2021/12/15 11:41:21;;;;;;;18.53;10.70;;;;;;;5.89;100.00;-23981.28;5033939;28;20244;-71
2021/12/15 11:43:53;;;;;;;16.33;10.57;;;;;;;5.88;100.00;-23980.88;5033138;28;20276;-71
2021/12/15 11:46:18;;;;;;;14.60;9.30;;;;;;;5.81;100.00;-23979.00;5032049;28;20269;-71
2021/12/15 11:48:50;;;;;;;16.40;10.40;;;;;;;5.53;100.00;-23971.06;5032678;28;20176;-71
2021/12/15 11:51:36;;;;;;;13.90;9.30;;;;;;;5.44;100.00;-23968.63;5033607;28;20168;-71
2021/12/15 11:54:12;;;;;;;15.37;9.70;;;;;;;5.44;100.00;-23968.63;5033289;28;20199;-71
2021/12/15 11:56:38;;;;;;;15.00;9.60;;;;;;;5.33;100.00;-23965.50;5033262;28;20166;-71
2021/12/15 11:59:15;;;;;;;16.00;10.03;;;;;;;5.79;100.00;-23978.44;5033238;28;20266;-71
2021/12/15 12:01:46;;;;;;;15.37;10.00;;;;;;;5.67;100.00;-23975.03;5033468;28;20277;-71
2021/12/15 12:04:22;;;;;;;14.13;9.23;;;;;;;5.23;100.00;-23962.81;5033717;28;20645;-71
2021/12/15 12:06:51;;;;;;;16.13;9.90;;;;;;;5.47;100.00;-23969.34;5033278;28;20182;-71
2021/12/15 12:09:19;;;;;;;15.37;9.93;;;;;;;5.60;100.00;-23973.19;5032914;28;20713;-71
2021/12/15 12:11:51;;;;;;;17.37;9.97;;;;;;;5.60;100.00;-23973.03;5033313;28;20194;-70
2021/12/15 12:14:36;;;;;;;15.33;10.00;;;;;;;5.61;100.00;-23973.47;5064942;28;20258;-70
2021/12/15 12:17:02;;;;;;;16.40;9.87;;;;;;;5.36;100.00;-23966.22;5031538;28;20176;-70
2021/12/15 12:19:28;;;;;;;15.57;9.83;;;;;;;5.49;100.00;-23970.06;5032712;28;20700;-71
2021/12/15 12:21:54;;;;;;;20.00;10.80;;;;;;;5.67;100.00;-23975.03;5032852;28;20262;-71
2021/12/15 12:24:19;;;;;;;23.13;13.10;;;;;;;5.64;100.00;-23974.19;5037447;28;20231;-70
2021/12/15 12:26:45;;;;;;;18.50;11.27;;;;;;;5.57;100.00;-23972.34;5047092;28;20190;-70
2021/12/15 12:29:12;;;;;;;16.00;10.00;;;;;;;5.79;100.00;-23978.44;5050627;28;20297;-70